Time;durP1;ratioP1;P1;durP2;ratioP2;P2;SDS_P1;SDS_P2;PMS_P1;PMS_P2;Temp;Humidity;BMP_temperature;BMP_pressure;BME280_temperature;BME280_humidity;BME280_pressure;Samples;Min_cycle;Max_cycle;Signal;HPM_P1;HPM_P2
2022/10/07 00:01:45;;;;;;;8.98;2.10;;;11.80;99.90;;;;;;5007523;28;20490;-75
2022/10/07 00:04:11;;;;;;;6.82;2.28;;;11.80;99.90;;;;;;5010413;28;20026;-74
2022/10/07 00:06:37;;;;;;;8.48;2.33;;;11.80;99.90;;;;;;5009902;28;21747;-73
2022/10/07 00:09:03;;;;;;;7.15;1.65;;;11.80;99.90;;;;;;5004266;28;20109;-79
2022/10/07 00:11:29;;;;;;;10.30;2.03;;;11.70;99.90;;;;;;5007787;28;20593;-79
2022/10/07 00:13:58;;;;;;;9.45;2.10;;;11.70;99.90;;;;;;5008952;28;20156;-73
2022/10/07 00:16:32;;;;;;;6.30;1.75;;;11.70;99.90;;;;;;5008350;28;20393;-74
2022/10/07 00:19:00;;;;;;;7.35;2.25;;;11.70;99.90;;;;;;5009653;28;20113;-74
2022/10/07 00:21:29;;;;;;;7.63;2.22;;;11.70;99.90;;;;;;5008237;28;20030;-75
2022/10/07 00:23:55;;;;;;;6.45;1.80;;;11.70;99.90;;;;;;5015063;28;20030;-74
2022/10/07 00:26:23;;;;;;;7.65;2.05;;;11.70;99.90;;;;;;5010932;28;20034;-74
2022/10/07 00:28:49;;;;;;;8.70;2.20;;;11.70;99.90;;;;;;5010745;28;20049;-79
2022/10/07 00:31:21;;;;;;;11.63;2.38;;;11.70;99.90;;;;;;5010018;28;20065;-74
2022/10/07 00:33:47;;;;;;;9.70;2.35;;;11.60;99.90;;;;;;5010699;28;20026;-75
2022/10/07 00:36:19;;;;;;;10.30;2.22;;;11.60;99.90;;;;;;5008687;28;20031;-74
2022/10/07 00:38:56;;;;;;;11.80;1.70;;;11.60;99.90;;;;;;5004839;28;20026;-75
2022/10/07 00:41:27;;;;;;;9.05;2.20;;;11.60;99.90;;;;;;5007436;28;20030;-77
2022/10/07 00:43:54;;;;;;;7.55;1.98;;;11.60;99.90;;;;;;5008864;28;20363;-75
2022/10/07 00:46:49;;;;;;;12.63;2.67;;;11.60;99.90;;;;;;5006924;28;20110;-74
2022/10/07 00:49:15;;;;;;;5.78;1.67;;;11.60;99.90;;;;;;4994625;28;20573;-75
2022/10/07 00:51:42;;;;;;;12.13;2.17;;;11.50;99.90;;;;;;5004977;28;20033;-75
2022/10/07 00:54:13;;;;;;;9.52;2.25;;;11.50;99.90;;;;;;5010163;28;20026;-74
2022/10/07 00:56:41;;;;;;;8.85;1.92;;;11.50;99.90;;;;;;5009181;28;20033;-74
2022/10/07 00:59:08;;;;;;;15.15;2.30;;;11.50;99.90;;;;;;5001731;28;20030;-74
2022/10/07 01:01:34;;;;;;;6.93;1.67;;;11.50;99.90;;;;;;5005144;28;20029;-74
2022/10/07 01:03:59;;;;;;;9.10;2.58;;;11.50;99.90;;;;;;5009729;28;20034;-74
2022/10/07 01:06:25;;;;;;;6.85;1.92;;;11.50;99.90;;;;;;5007013;28;20032;-73
2022/10/07 01:08:53;;;;;;;9.90;2.10;;;11.50;99.90;;;;;;5009090;28;20037;-75
2022/10/07 01:11:54;;;;;;;9.38;1.80;;;11.40;99.90;;;;;;5005608;28;20033;-75
2022/10/07 01:14:52;;;;;;;7.63;1.85;;;11.40;99.90;;;;;;5002164;28;20034;-75
2022/10/07 01:17:28;;;;;;;11.18;2.10;;;11.40;99.90;;;;;;4995825;28;20469;-75
2022/10/07 01:20:13;;;;;;;8.90;1.95;;;11.40;99.90;;;;;;5007399;28;20568;-73
2022/10/07 01:22:49;;;;;;;6.82;1.77;;;11.30;99.90;;;;;;5005540;28;20033;-74
2022/10/07 01:25:33;;;;;;;11.02;2.28;;;11.30;99.90;;;;;;5008651;28;20106;-74
2022/10/07 01:28:37;;;;;;;10.52;2.55;;;11.30;99.90;;;;;;5024878;28;20121;-75
2022/10/07 01:31:07;;;;;;;8.25;2.58;;;11.20;99.90;;;;;;5004411;28;20029;-78
2022/10/07 01:33:33;;;;;;;9.27;2.20;;;11.20;99.90;;;;;;5005337;28;20436;-74
2022/10/07 01:36:14;;;;;;;5.90;2.03;;;11.20;99.90;;;;;;5008236;28;20128;-77
2022/10/07 01:38:46;;;;;;;9.60;2.67;;;11.20;99.90;;;;;;5005198;28;20030;-74
2022/10/07 01:41:17;;;;;;;8.77;2.00;;;11.20;99.90;;;;;;5004407;28;20124;-81
2022/10/07 01:43:45;;;;;;;8.75;2.78;;;11.10;99.90;;;;;;5006237;28;20140;-75
2022/10/07 01:46:18;;;;;;;11.35;2.88;;;11.10;99.90;;;;;;5005904;28;20108;-77
2022/10/07 01:48:47;;;;;;;12.65;2.75;;;11.10;99.90;;;;;;5003619;28;20592;-80
2022/10/07 01:51:19;;;;;;;12.25;2.70;;;11.00;99.90;;;;;;5021499;28;20491;-74
2022/10/07 01:54:19;;;;;;;7.78;2.28;;;11.00;99.90;;;;;;5007658;28;20025;-77
2022/10/07 01:56:47;;;;;;;12.50;2.53;;;11.00;99.90;;;;;;5002550;28;20494;-75
2022/10/07 01:59:44;;;;;;;14.50;2.72;;;11.00;99.90;;;;;;5023934;28;20033;-74
2022/10/07 02:02:22;;;;;;;11.95;2.83;;;10.90;99.90;;;;;;5014638;28;20100;-74
2022/10/07 02:05:06;;;;;;;12.52;2.95;;;10.90;99.90;;;;;;5006420;28;20018;-73
2022/10/07 02:08:02;;;;;;;12.75;2.70;;;10.90;99.90;;;;;;5009250;28;20099;-73
2022/10/07 02:10:49;;;;;;;8.65;2.42;;;10.90;99.90;;;;;;5007026;28;20466;-82
2022/10/07 02:13:36;;;;;;;12.02;2.72;;;10.80;99.90;;;;;;5003597;28;20026;-75
2022/10/07 02:16:17;;;;;;;11.55;2.53;;;10.80;99.90;;;;;;5004951;28;20029;-75
2022/10/07 02:18:47;;;;;;;9.30;2.80;;;10.80;99.90;;;;;;4990306;28;20034;-73
2022/10/07 02:21:19;;;;;;;9.95;2.50;;;10.80;99.90;;;;;;5007067;28;20029;-73
2022/10/07 02:23:45;;;;;;;8.73;2.60;;;10.70;99.90;;;;;;5005299;28;20030;-74
2022/10/07 02:26:15;;;;;;;11.18;2.55;;;10.70;99.90;;;;;;5011524;28;20540;-81
2022/10/07 02:28:43;;;;;;;13.40;2.58;;;10.70;99.90;;;;;;5005427;28;20102;-74
2022/10/07 02:31:11;;;;;;;7.38;2.50;;;10.70;99.90;;;;;;4999730;28;20029;-74
2022/10/07 02:33:39;;;;;;;7.85;2.33;;;10.70;99.90;;;;;;5004780;28;20026;-75
2022/10/07 02:36:12;;;;;;;6.85;2.50;;;10.70;99.90;;;;;;5012127;28;20026;-73
2022/10/07 02:38:39;;;;;;;8.68;3.00;;;10.70;99.90;;;;;;5008090;28;20022;-72
2022/10/07 02:41:30;;;;;;;11.23;2.88;;;10.60;99.90;;;;;;5006471;28;20090;-74
2022/10/07 02:44:05;;;;;;;;;;;10.60;99.90;;;;;;5003596;28;20052;-74
2022/10/07 02:46:35;;;;;;;7.60;2.92;;;10.60;99.90;;;;;;5004746;28;20405;-74
2022/10/07 02:49:05;;;;;;;9.07;2.92;;;10.60;99.90;;;;;;5007351;28;20029;-73
2022/10/07 02:51:45;;;;;;;8.05;2.50;;;10.50;99.90;;;;;;5005479;28;21079;-73
2022/10/07 02:54:12;;;;;;;11.43;3.13;;;10.50;99.90;;;;;;5010987;28;20030;-73
2022/10/07 02:56:42;;;;;;;9.77;2.70;;;10.50;99.90;;;;;;5010841;28;20501;-73
2022/10/07 02:59:10;;;;;;;10.02;2.67;;;10.50;99.90;;;;;;5011208;28;20096;-75
2022/10/07 03:01:40;;;;;;;10.57;2.47;;;10.50;99.90;;;;;;5010700;28;20022;-72
2022/10/07 03:04:06;;;;;;;5.38;2.45;;;10.50;99.90;;;;;;5007510;28;20429;-74
2022/10/07 03:06:34;;;;;;;8.48;2.72;;;10.40;99.90;;;;;;5011435;28;20030;-74
2022/10/07 03:09:06;;;;;;;11.98;2.78;;;10.40;99.90;;;;;;5008262;28;20663;-73
2022/10/07 03:11:31;;;;;;;11.32;2.70;;;10.40;99.90;;;;;;5009557;28;20041;-75
2022/10/07 03:13:57;;;;;;;11.90;3.33;;;10.40;99.90;;;;;;5012770;28;20037;-75
2022/10/07 03:16:23;;;;;;;11.05;2.92;;;10.40;99.90;;;;;;5020038;28;20026;-73
2022/10/07 03:18:49;;;;;;;11.00;3.00;;;10.40;99.90;;;;;;5011891;28;20102;-73
2022/10/07 03:21:15;;;;;;;7.63;3.13;;;10.30;99.90;;;;;;5010636;28;20029;-75
2022/10/07 03:23:41;;;;;;;9.98;3.33;;;10.30;99.90;;;;;;5011862;28;20045;-73
2022/10/07 03:26:07;;;;;;;8.35;3.10;;;10.30;99.90;;;;;;5009962;28;20041;-75
2022/10/07 03:28:36;;;;;;;6.53;2.60;;;10.30;99.90;;;;;;5012955;28;20037;-72
2022/10/07 03:31:06;;;;;;;13.07;3.45;;;10.30;99.90;;;;;;5008377;28;20041;-73
2022/10/07 03:33:33;;;;;;;14.18;3.35;;;10.30;99.90;;;;;;5011010;28;20030;-73
2022/10/07 03:35:59;;;;;;;10.73;3.60;;;10.30;99.90;;;;;;5006448;28;20071;-73
2022/10/07 03:38:25;;;;;;;9.70;3.00;;;10.20;99.90;;;;;;5010722;28;20034;-74
2022/10/07 03:40:51;;;;;;;11.00;3.38;;;10.20;99.90;;;;;;5010310;28;20157;-73
2022/10/07 03:43:17;;;;;;;12.15;3.08;;;10.20;99.90;;;;;;5010446;28;20045;-76
2022/10/07 03:45:44;;;;;;;7.80;2.63;;;10.20;99.90;;;;;;5009898;28;20026;-81
2022/10/07 03:48:10;;;;;;;10.15;2.95;;;10.20;99.90;;;;;;4984771;28;20091;-75
2022/10/07 03:50:36;;;;;;;8.18;2.60;;;10.20;99.90;;;;;;5009824;28;20660;-72
2022/10/07 03:53:03;;;;;;;7.38;3.00;;;10.20;99.90;;;;;;5011128;28;20489;-76
2022/10/07 03:55:29;;;;;;;8.18;2.80;;;10.20;99.90;;;;;;5009153;28;20034;-73
2022/10/07 03:57:56;;;;;;;10.32;2.90;;;10.20;99.90;;;;;;5009794;28;20034;-72
2022/10/07 04:00:24;;;;;;;7.75;3.00;;;10.10;99.90;;;;;;5011353;28;20045;-75
2022/10/07 04:02:51;;;;;;;6.15;2.63;;;10.10;99.90;;;;;;5009591;28;20101;-77
2022/10/07 04:05:18;;;;;;;8.00;2.80;;;10.10;99.90;;;;;;5009694;28;20038;-74
2022/10/07 04:08:06;;;;;;;10.45;3.25;;;10.10;99.90;;;;;;4995422;28;20029;-73
2022/10/07 04:10:32;;;;;;;9.25;2.95;;;10.10;99.90;;;;;;5010104;28;20533;-74
2022/10/07 04:12:58;;;;;;;10.93;2.95;;;10.10;99.90;;;;;;5006782;28;20157;-74
2022/10/07 04:15:24;;;;;;;7.60;3.20;;;10.10;99.90;;;;;;5009937;28;20219;-78
2022/10/07 04:17:57;;;;;;;8.98;3.45;;;10.10;99.90;;;;;;5007909;28;20092;-75
2022/10/07 04:20:23;;;;;;;8.68;2.92;;;10.10;99.90;;;;;;5009570;28;20037;-72
2022/10/07 04:22:49;;;;;;;6.38;2.88;;;10.10;99.90;;;;;;5007662;28;20072;-74
2022/10/07 04:25:33;;;;;;;8.07;2.72;;;10.10;99.90;;;;;;5011319;28;20111;-73
2022/10/07 04:28:01;;;;;;;9.45;3.45;;;10.10;99.90;;;;;;5006807;28;20034;-73
2022/10/07 04:30:32;;;;;;;8.77;3.38;;;10.10;99.90;;;;;;5008375;28;20109;-76
2022/10/07 04:32:58;;;;;;;9.98;3.05;;;10.10;99.90;;;;;;4992649;28;20026;-73
2022/10/07 04:35:24;;;;;;;13.82;3.05;;;10.10;99.90;;;;;;5016417;28;20030;-78
2022/10/07 04:37:50;;;;;;;12.55;2.67;;;10.10;99.90;;;;;;5021245;28;20528;-74
2022/10/07 04:40:18;;;;;;;6.90;2.85;;;10.10;99.90;;;;;;5021224;28;20030;-75
2022/10/07 04:45:34;;;;;;;12.57;2.78;;;10.10;99.90;;;;;;4999468;28;20034;-74
2022/10/07 04:48:02;;;;;;;9.75;3.42;;;10.10;99.90;;;;;;5010155;28;21341;-73
2022/10/07 04:50:28;;;;;;;7.45;2.60;;;10.10;99.90;;;;;;5007853;28;20073;-73
2022/10/07 04:52:54;;;;;;;13.45;3.75;;;10.10;99.90;;;;;;5008618;28;20091;-74
2022/10/07 04:55:25;;;;;;;7.60;2.67;;;10.10;99.90;;;;;;5006349;28;20045;-75
2022/10/07 04:57:51;;;;;;;6.82;2.97;;;10.10;99.90;;;;;;5005276;28;20029;-74
2022/10/07 05:00:17;;;;;;;6.13;2.60;;;10.10;99.90;;;;;;5006369;28;20045;-75
2022/10/07 05:02:45;;;;;;;8.52;3.70;;;10.00;99.90;;;;;;5003329;28;20033;-72
2022/10/07 05:05:11;;;;;;;11.15;3.72;;;10.00;99.90;;;;;;5003095;28;20037;-74
2022/10/07 05:07:37;;;;;;;10.50;3.45;;;10.00;99.90;;;;;;5008711;28;20033;-73
2022/10/07 05:10:03;;;;;;;7.07;2.70;;;10.00;99.90;;;;;;5007384;28;20134;-73
2022/10/07 05:12:29;;;;;;;10.23;3.22;;;10.00;99.90;;;;;;5008928;28;20053;-71
2022/10/07 05:14:54;;;;;;;8.23;3.22;;;10.00;99.90;;;;;;5006074;28;20025;-73
2022/10/07 05:17:22;;;;;;;10.70;3.17;;;10.00;99.90;;;;;;5012343;28;20042;-76
2022/10/07 05:19:47;;;;;;;12.55;3.70;;;10.00;99.90;;;;;;5006290;28;20088;-74
2022/10/07 05:22:13;;;;;;;14.30;2.35;;;10.00;99.90;;;;;;5009133;28;20030;-75
2022/10/07 05:24:40;;;;;;;13.35;2.83;;;10.50;99.90;;;;;;5006739;28;20014;-78
2022/10/07 05:27:05;;;;;;;9.18;2.80;;;10.30;99.90;;;;;;4992119;28;20037;-73
2022/10/07 05:29:31;;;;;;;8.73;2.95;;;10.20;99.90;;;;;;5007686;28;20038;-73
2022/10/07 05:31:58;;;;;;;13.77;3.47;;;10.10;99.90;;;;;;4988568;28;20034;-74
2022/10/07 05:34:23;;;;;;;12.25;3.30;;;10.10;99.90;;;;;;5008992;28;20066;-74
2022/10/07 05:36:49;;;;;;;8.32;2.88;;;10.10;99.90;;;;;;4998780;28;20137;-74
2022/10/07 05:39:15;;;;;;;10.95;3.20;;;10.00;99.90;;;;;;4998518;28;20033;-79
2022/10/07 05:41:41;;;;;;;11.70;3.88;;;10.10;99.90;;;;;;5000909;28;20076;-76
2022/10/07 05:44:08;;;;;;;12.57;3.03;;;10.00;99.90;;;;;;5006609;28;20080;-74
2022/10/07 05:46:33;;;;;;;12.18;3.05;;;10.00;99.90;;;;;;5009605;28;20026;-76
2022/10/07 05:49:00;;;;;;;12.27;3.55;;;10.00;99.90;;;;;;4989043;28;20034;-75
2022/10/07 05:51:26;;;;;;;11.30;2.78;;;9.90;99.90;;;;;;5009169;28;20030;-76
2022/10/07 05:53:55;;;;;;;9.15;2.78;;;9.90;99.90;;;;;;5006423;28;20043;-74
2022/10/07 05:56:23;;;;;;;12.27;3.25;;;9.90;99.90;;;;;;5001618;28;20037;-80
2022/10/07 05:58:51;;;;;;;9.63;3.10;;;9.90;99.90;;;;;;5007570;28;20028;-76
2022/10/07 06:01:19;;;;;;;7.78;2.60;;;9.90;99.90;;;;;;5007195;28;20521;-74
2022/10/07 06:03:53;;;;;;;12.90;3.42;;;9.90;99.90;;;;;;5007443;28;20499;-79
2022/10/07 06:06:20;;;;;;;12.55;2.97;;;9.90;99.90;;;;;;5001791;28;20033;-74
2022/10/07 06:08:46;;;;;;;12.40;2.92;;;9.90;99.90;;;;;;5003088;28;20113;-74
2022/10/07 06:14:00;;;;;;;14.55;3.88;;;10.00;99.90;;;;;;5003300;28;20564;-72
2022/10/07 06:16:27;;;;;;;8.77;3.05;;;10.00;99.90;;;;;;4990314;28;20041;-74
2022/10/07 06:18:53;;;;;;;15.15;3.58;;;10.00;99.90;;;;;;5006243;28;20654;-72
2022/10/07 06:21:22;;;;;;;11.40;2.85;;;10.00;99.90;;;;;;5002026;28;20041;-73
2022/10/07 06:23:53;;;;;;;10.68;3.38;;;10.00;99.90;;;;;;4987666;28;20050;-72
2022/10/07 06:26:20;;;;;;;13.88;2.95;;;10.00;99.90;;;;;;5006793;28;20030;-73
2022/10/07 06:28:46;;;;;;;13.35;3.03;;;10.10;99.90;;;;;;4978236;28;20125;-79
2022/10/07 06:31:14;;;;;;;10.18;3.13;;;10.10;99.90;;;;;;5005923;28;20125;-74
2022/10/07 06:33:40;;;;;;;9.50;3.63;;;10.10;99.90;;;;;;5001405;28;20053;-72
2022/10/07 06:36:10;;;;;;;11.77;3.40;;;10.10;99.90;;;;;;4998714;28;20053;-72
2022/10/07 06:38:36;;;;;;;13.73;3.40;;;10.10;99.90;;;;;;5005711;28;20022;-72
2022/10/07 06:41:04;;;;;;;8.95;3.70;;;10.20;99.90;;;;;;5003350;28;20087;-73
2022/10/07 06:43:32;;;;;;;12.25;3.42;;;10.20;99.90;;;;;;5004813;28;20030;-72
2022/10/07 06:46:00;;;;;;;10.65;3.40;;;10.30;99.90;;;;;;5008633;28;20307;-72
2022/10/07 06:48:27;;;;;;;9.73;2.85;;;10.30;99.90;;;;;;5002911;28;20034;-72
2022/10/07 06:50:54;;;;;;;10.27;3.05;;;10.30;99.90;;;;;;5006231;28;20034;-72
2022/10/07 06:53:21;;;;;;;10.27;2.67;;;10.30;99.90;;;;;;5000831;28;20407;-72
2022/10/07 06:55:50;;;;;;;13.73;3.08;;;10.40;99.90;;;;;;5002596;28;20061;-75
2022/10/07 06:58:26;;;;;;;10.15;3.42;;;10.40;99.90;;;;;;5002849;28;20026;-72
2022/10/07 07:00:55;;;;;;;12.20;2.97;;;10.50;99.90;;;;;;5000378;28;20022;-73
2022/10/07 07:03:22;;;;;;;13.60;3.33;;;10.50;99.90;;;;;;5001479;28;20061;-75
2022/10/07 07:05:50;;;;;;;11.70;3.47;;;10.60;99.90;;;;;;5015771;28;20065;-72
2022/10/07 07:08:17;;;;;;;13.00;4.35;;;10.60;99.90;;;;;;4992181;28;20072;-72
2022/10/07 07:10:44;;;;;;;15.63;3.28;;;10.60;99.90;;;;;;5007418;28;20053;-73
2022/10/07 07:13:10;;;;;;;11.60;3.42;;;10.70;99.90;;;;;;5001101;28;20041;-72
2022/10/07 07:15:37;;;;;;;8.13;2.85;;;10.80;99.90;;;;;;5004153;28;20033;-72
2022/10/07 07:18:05;;;;;;;9.75;2.72;;;10.80;99.90;;;;;;5003941;28;20603;-73
2022/10/07 07:20:36;;;;;;;13.13;3.50;;;10.90;99.90;;;;;;5003016;28;20037;-72
2022/10/07 07:23:04;;;;;;;12.57;3.38;;;10.90;99.90;;;;;;5002994;28;20045;-73
2022/10/07 07:25:31;;;;;;;9.88;3.28;;;11.00;99.90;;;;;;5003499;28;20118;-72
2022/10/07 07:28:00;;;;;;;16.27;3.47;;;11.00;99.90;;;;;;4997680;28;20101;-71
2022/10/07 07:30:27;;;;;;;12.98;3.25;;;11.10;99.90;;;;;;4983166;28;20488;-72
2022/10/07 07:32:54;;;;;;;11.60;3.05;;;11.20;99.90;;;;;;4997198;28;20026;-73
2022/10/07 07:35:21;;;;;;;7.50;2.53;;;11.20;99.90;;;;;;5009766;28;20036;-73
2022/10/07 07:37:47;;;;;;;11.50;3.10;;;11.30;99.90;;;;;;5003482;28;20273;-72
2022/10/07 07:40:12;;;;;;;12.82;3.22;;;11.30;99.90;;;;;;5002516;28;20037;-72
2022/10/07 07:42:38;;;;;;;9.85;3.03;;;11.40;99.90;;;;;;5003933;28;20802;-74
2022/10/07 07:45:04;;;;;;;11.25;2.80;;;11.40;99.90;;;;;;5004888;28;20030;-73
2022/10/07 07:47:30;;;;;;;13.80;2.80;;;11.50;99.90;;;;;;5008280;28;20106;-72
2022/10/07 07:49:56;;;;;;;6.53;2.60;;;11.50;99.90;;;;;;5004355;28;20386;-73
2022/10/07 07:52:24;;;;;;;7.05;2.42;;;11.60;99.90;;;;;;5003773;28;20033;-72
2022/10/07 07:54:50;;;;;;;10.43;2.83;;;11.60;99.90;;;;;;5000081;28;20311;-73
2022/10/07 07:57:17;;;;;;;6.53;1.98;;;11.70;99.90;;;;;;5007210;28;20052;-73
2022/10/07 07:59:42;;;;;;;10.43;2.35;;;11.70;99.90;;;;;;5003524;28;20030;-73
2022/10/07 08:02:11;;;;;;;10.15;1.90;;;11.70;99.90;;;;;;4999427;28;20487;-73
2022/10/07 08:04:36;;;;;;;7.30;2.35;;;11.70;99.90;;;;;;5004976;28;20035;-74
2022/10/07 08:07:02;;;;;;;14.52;2.88;;;11.80;99.90;;;;;;5004333;28;20444;-72
2022/10/07 08:09:28;;;;;;;9.93;2.58;;;11.80;99.90;;;;;;4999304;28;20101;-72
2022/10/07 08:11:55;;;;;;;20.00;2.83;;;11.80;99.90;;;;;;5002388;28;20503;-71
2022/10/07 08:14:21;;;;;;;10.68;2.90;;;11.90;99.90;;;;;;5004320;28;20045;-72
2022/10/07 08:16:48;;;;;;;11.07;2.75;;;11.90;99.90;;;;;;5006726;28;20120;-71
2022/10/07 08:19:14;;;;;;;10.25;2.80;;;12.00;99.90;;;;;;5007080;28;20022;-73
2022/10/07 08:21:40;;;;;;;9.32;2.90;;;12.10;99.90;;;;;;4987657;28;20025;-72
2022/10/07 08:24:07;;;;;;;19.17;3.10;;;12.10;99.90;;;;;;5003557;28;20030;-72
2022/10/07 08:26:33;;;;;;;10.80;3.50;;;12.10;99.90;;;;;;5006285;28;20080;-73
2022/10/07 08:29:00;;;;;;;6.38;1.95;;;12.20;99.90;;;;;;5010029;28;20482;-73
2022/10/07 08:31:27;;;;;;;12.63;3.05;;;12.20;99.90;;;;;;5005453;28;20517;-75
2022/10/07 08:33:55;;;;;;;11.95;2.85;;;12.20;99.90;;;;;;4992742;28;20033;-71
2022/10/07 08:36:23;;;;;;;10.20;2.78;;;12.20;99.90;;;;;;5007378;28;20106;-74
2022/10/07 08:38:49;;;;;;;9.98;2.95;;;12.30;99.90;;;;;;5008941;28;20040;-72
2022/10/07 08:41:32;;;;;;;11.13;2.40;;;12.30;99.90;;;;;;5007199;28;20034;-74
2022/10/07 08:44:19;;;;;;;11.45;3.28;;;12.30;99.90;;;;;;5007112;28;20491;-71
2022/10/07 08:46:56;;;;;;;12.23;2.33;;;12.30;99.90;;;;;;5004766;28;20060;-73
2022/10/07 08:49:38;;;;;;;12.90;1.88;;;12.40;99.90;;;;;;5023329;28;20478;-72
2022/10/07 08:52:22;;;;;;;12.90;2.25;;;12.50;99.90;;;;;;5006092;28;20029;-74
2022/10/07 08:54:48;;;;;;;10.68;2.40;;;12.60;99.90;;;;;;5011373;28;20088;-73
2022/10/07 08:57:21;;;;;;;14.45;2.25;;;12.70;99.90;;;;;;5002058;28;20515;-73
2022/10/07 08:59:54;;;;;;;18.98;2.40;;;12.80;99.90;;;;;;4997632;28;20052;-75
2022/10/07 09:03:04;;;;;;;6.47;1.90;;;12.90;99.90;;;;;;4999706;28;20037;-75
2022/10/07 09:05:37;;;;;;;10.93;2.40;;;13.00;99.90;;;;;;4996916;28;21205;-72
2022/10/07 09:08:10;;;;;;;11.63;2.88;;;13.10;99.90;;;;;;5001681;28;20037;-76
2022/10/07 09:10:37;;;;;;;12.75;2.45;;;13.20;99.90;;;;;;5008255;28;20026;-73
2022/10/07 09:13:10;;;;;;;9.45;2.50;;;13.30;99.90;;;;;;5003543;28;20029;-73
2022/10/07 09:16:03;;;;;;;14.75;2.70;;;13.40;99.90;;;;;;4995434;28;20021;-72
2022/10/07 09:18:41;;;;;;;11.00;2.58;;;13.40;99.90;;;;;;5009171;28;20506;-74
2022/10/07 09:21:15;;;;;;;16.55;2.80;;;13.50;99.90;;;;;;5003998;28;20465;-71
2022/10/07 09:23:41;;;;;;;14.05;2.70;;;13.60;99.90;;;;;;5004857;28;20054;-71
2022/10/07 09:26:12;;;;;;;9.65;1.98;;;13.70;99.90;;;;;;5007359;28;20060;-72
2022/10/07 09:28:38;;;;;;;12.00;2.10;;;13.80;99.90;;;;;;5005469;28;20026;-72
2022/10/07 09:31:05;;;;;;;14.25;2.40;;;13.90;99.90;;;;;;5007233;28;20026;-72
2022/10/07 09:33:35;;;;;;;15.50;2.85;;;14.00;99.90;;;;;;5004336;28;20110;-71
2022/10/07 09:36:08;;;;;;;10.27;2.38;;;14.20;99.90;;;;;;5000149;28;20118;-72
2022/10/07 09:38:39;;;;;;;13.50;2.50;;;14.40;99.90;;;;;;5003945;28;20033;-72
2022/10/07 09:41:31;;;;;;;10.80;2.45;;;14.60;99.90;;;;;;5001186;28;20065;-72
2022/10/07 09:44:13;;;;;;;8.95;2.25;;;14.90;99.90;;;;;;5003308;28;20014;-74
2022/10/07 09:46:46;;;;;;;10.48;2.53;;;15.20;99.90;;;;;;5002577;28;20033;-73
2022/10/07 09:49:27;;;;;;;8.15;2.47;;;15.60;99.90;;;;;;5006532;28;20033;-73
2022/10/07 09:52:16;;;;;;;9.93;2.05;;;16.10;99.90;;;;;;5004996;28;20069;-73
2022/10/07 09:54:45;;;;;;;12.10;2.20;;;16.60;99.90;;;;;;5003016;28;20402;-75
2022/10/07 09:57:24;;;;;;;12.77;2.40;;;17.20;99.90;;;;;;5005887;28;20145;-73
2022/10/07 09:59:49;;;;;;;8.95;2.00;;;17.60;99.90;;;;;;5004077;28;20068;-70
2022/10/07 10:02:24;;;;;;;13.50;4.95;;;18.10;99.90;;;;;;4985509;28;20054;-71
2022/10/07 10:04:53;;;;;;;12.93;3.55;;;18.80;99.60;;;;;;5003683;28;20037;-74
2022/10/07 10:07:20;;;;;;;7.07;2.58;;;19.30;98.40;;;;;;5004514;28;20037;-74
2022/10/07 10:09:51;;;;;;;10.50;2.53;;;19.80;97.00;;;;;;5003647;28;20498;-72
2022/10/07 10:12:20;;;;;;;10.95;2.10;;;20.40;95.60;;;;;;5007021;28;20060;-75
2022/10/07 10:14:50;;;;;;;11.20;2.10;;;20.80;94.20;;;;;;4998827;28;20478;-73
2022/10/07 10:17:39;;;;;;;10.75;2.40;;;21.10;92.90;;;;;;5001626;28;20030;-74
2022/10/07 10:20:35;;;;;;;12.35;1.90;;;20.70;92.30;;;;;;4998555;28;20117;-72
2022/10/07 10:23:22;;;;;;;13.63;2.80;;;20.40;92.50;;;;;;5002994;28;20034;-71
2022/10/07 10:26:25;;;;;;;13.52;2.17;;;20.00;92.50;;;;;;4998078;28;20485;-73
2022/10/07 10:29:18;;;;;;;11.35;2.58;;;19.60;93.70;;;;;;5006812;28;20033;-76
2022/10/07 10:32:06;;;;;;;8.73;2.75;;;19.00;93.90;;;;;;4998854;28;20057;-71
2022/10/07 10:34:43;;;;;;;10.35;1.92;;;18.20;95.80;;;;;;5003430;28;20099;-72
2022/10/07 10:37:20;;;;;;;10.77;2.00;;;17.70;97.60;;;;;;5001953;28;20236;-71
2022/10/07 10:39:46;;;;;;;11.55;1.90;;;17.60;98.20;;;;;;5006171;28;20022;-72
2022/10/07 10:42:15;;;;;;;11.45;2.22;;;17.60;98.30;;;;;;5000686;28;20030;-72
2022/10/07 10:44:54;;;;;;;11.75;2.75;;;17.80;98.80;;;;;;4982905;28;20525;-72
2022/10/07 10:47:50;;;;;;;9.20;2.53;;;18.20;98.40;;;;;;4986715;28;20064;-71
2022/10/07 10:50:52;;;;;;;10.32;2.53;;;18.90;97.70;;;;;;5004520;28;20029;-72
2022/10/07 10:53:50;;;;;;;7.85;1.90;;;20.00;95.20;;;;;;5005993;28;20029;-72
2022/10/07 10:56:50;;;;;;;9.10;1.77;;;19.60;94.70;;;;;;5005132;28;20512;-73
2022/10/07 10:59:38;;;;;;;12.90;2.03;;;18.80;95.80;;;;;;5001959;28;20045;-72
2022/10/07 11:02:41;;;;;;;8.00;1.85;;;18.80;95.80;;;;;;5008923;28;20056;-73
2022/10/07 11:05:13;;;;;;;9.45;2.20;;;18.40;96.50;;;;;;4984623;28;20030;-75
2022/10/07 11:07:45;;;;;;;10.55;1.90;;;18.10;96.90;;;;;;4983004;28;20036;-74
2022/10/07 11:10:20;;;;;;;8.82;1.77;;;18.00;97.60;;;;;;4985104;28;20041;-72
2022/10/07 11:12:53;;;;;;;7.85;2.15;;;17.90;98.10;;;;;;4988944;28;20029;-72
2022/10/07 11:15:25;;;;;;;9.88;1.98;;;17.70;98.50;;;;;;4984771;28;20537;-72
2022/10/07 11:17:55;;;;;;;7.90;1.73;;;17.70;98.50;;;;;;5003267;28;20082;-72
2022/10/07 11:20:36;;;;;;;10.68;1.92;;;17.80;98.10;;;;;;4999844;28;20619;-74
2022/10/07 11:23:12;;;;;;;6.88;1.70;;;17.50;98.30;;;;;;4997466;28;20653;-77
2022/10/07 11:25:45;;;;;;;8.88;2.03;;;17.50;98.30;;;;;;5003935;28;20030;-71
2022/10/07 11:28:33;;;;;;;7.13;1.92;;;17.20;99.10;;;;;;4996993;28;20049;-74
2022/10/07 11:31:10;;;;;;;8.43;2.28;;;17.10;99.80;;;;;;5001548;28;20026;-73
2022/10/07 11:33:47;;;;;;;11.88;2.00;;;17.00;99.80;;;;;;4984158;28;20041;-74
2022/10/07 11:36:18;;;;;;;12.27;2.10;;;16.80;99.90;;;;;;5001801;28;20025;-73
2022/10/07 11:38:45;;;;;;;12.10;2.25;;;16.90;99.90;;;;;;5007019;28;20116;-74
2022/10/07 11:41:14;;;;;;;9.77;2.05;;;16.80;99.90;;;;;;5002082;28;20025;-73
2022/10/07 11:43:55;;;;;;;6.50;1.58;;;16.80;99.90;;;;;;4999765;28;20696;-73
2022/10/07 11:46:32;;;;;;;8.30;1.88;;;16.80;99.90;;;;;;5004268;28;20080;-74
2022/10/07 11:49:28;;;;;;;11.00;2.30;;;16.70;99.90;;;;;;4999374;28;20030;-73
2022/10/07 11:51:57;;;;;;;11.63;2.17;;;16.80;99.90;;;;;;4998684;28;20030;-73
2022/10/07 11:54:26;;;;;;;9.63;2.10;;;16.60;99.90;;;;;;5005665;28;20062;-73
2022/10/07 11:56:56;;;;;;;9.18;1.98;;;16.40;99.90;;;;;;5010375;28;20068;-74
2022/10/07 11:59:47;;;;;;;11.32;2.17;;;16.50;99.90;;;;;;5010299;28;20030;-73
2022/10/07 12:02:44;;;;;;;11.20;2.85;;;16.40;99.90;;;;;;5022750;28;20030;-73
2022/10/07 12:05:34;;;;;;;12.02;2.67;;;16.60;99.90;;;;;;5004394;28;20038;-73
2022/10/07 12:08:22;;;;;;;11.68;2.40;;;16.40;99.90;;;;;;5003111;28;20038;-73
2022/10/07 12:10:52;;;;;;;9.20;1.77;;;16.40;99.90;;;;;;5005622;28;20052;-73
2022/10/07 12:13:19;;;;;;;16.65;5.25;;;16.40;99.90;;;;;;5003834;28;20099;-73
2022/10/07 12:15:46;;;;;;;15.82;3.58;;;16.30;99.90;;;;;;5002436;28;20036;-74
2022/10/07 12:18:16;;;;;;;9.52;2.13;;;16.20;99.90;;;;;;5007022;28;20034;-73
2022/10/07 12:20:53;;;;;;;8.95;1.90;;;16.20;99.90;;;;;;5006302;28;20037;-74
2022/10/07 12:23:21;;;;;;;8.27;2.08;;;16.10;99.90;;;;;;5009554;28;20099;-72
2022/10/07 12:25:58;;;;;;;7.70;1.80;;;16.10;99.90;;;;;;5006161;28;20033;-72
2022/10/07 12:28:29;;;;;;;9.63;2.00;;;16.00;99.90;;;;;;5005394;28;20029;-72
2022/10/07 12:30:56;;;;;;;;;;;16.00;99.90;;;;;;5004530;28;20026;-72
2022/10/07 12:33:44;;;;;;;10.57;2.33;;;16.10;99.90;;;;;;5010326;28;19913;-72
2022/10/07 12:36:24;;;;;;;10.85;2.53;;;16.10;99.90;;;;;;4993833;28;20040;-75
2022/10/07 12:38:56;;;;;;;11.55;1.90;;;16.20;99.90;;;;;;5001804;28;20222;-76
2022/10/07 12:41:35;;;;;;;14.90;2.45;;;16.20;99.90;;;;;;5006905;28;20036;-74
2022/10/07 12:44:21;;;;;;;6.40;1.70;;;16.20;99.90;;;;;;5005770;28;20041;-73
2022/10/07 12:47:04;;;;;;;8.73;2.25;;;16.10;99.90;;;;;;5005502;28;20037;-73
2022/10/07 12:49:41;;;;;;;9.68;1.95;;;16.10;99.90;;;;;;5011858;28;20034;-73
2022/10/07 12:52:15;;;;;;;8.27;1.83;;;16.10;99.90;;;;;;5009165;28;20543;-73
2022/10/07 12:54:50;;;;;;;12.60;2.28;;;16.20;99.90;;;;;;5008108;28;20493;-73
2022/10/07 12:57:24;;;;;;;6.45;2.05;;;16.10;99.90;;;;;;5007702;28;20065;-74
2022/10/07 13:00:11;;;;;;;14.07;2.25;;;16.10;99.90;;;;;;5012627;28;20029;-73
2022/10/07 13:03:12;;;;;;;8.68;1.85;;;16.10;99.90;;;;;;5004339;28;20021;-74
2022/10/07 13:05:56;;;;;;;9.80;2.53;;;16.10;99.90;;;;;;5005805;28;20041;-74
2022/10/07 13:08:53;;;;;;;7.85;1.92;;;16.00;99.90;;;;;;5005469;28;20875;-73
2022/10/07 13:11:58;;;;;;;5.90;1.25;;;16.00;99.90;;;;;;5018928;28;20026;-73
2022/10/07 13:14:48;;;;;;;12.30;1.60;;;16.00;99.90;;;;;;5007700;28;20026;-73
2022/10/07 13:17:38;;;;;;;9.15;2.00;;;16.00;99.90;;;;;;5004156;28;20026;-75